createdAt,value
2017-12-05T00:01:31.206Z,34.40
2017-12-05T00:04:00.073Z,31.43
2017-12-05T00:06:28.932Z,34.07
2017-12-05T00:08:57.767Z,31.00
2017-12-05T00:11:26.623Z,34.23
2017-12-05T00:13:55.497Z,35.43
2017-12-05T00:16:24.338Z,36.10
2017-12-05T00:18:53.198Z,34.43
2017-12-05T00:21:22.138Z,34.13
2017-12-05T00:23:50.991Z,35.73
2017-12-05T00:26:19.865Z,36.07
2017-12-05T00:28:48.731Z,36.67
2017-12-05T00:31:17.568Z,35.97
2017-12-05T00:33:46.408Z,34.47
2017-12-05T00:36:15.259Z,35.43
2017-12-05T00:38:45.163Z,35.10
2017-12-05T00:41:14.007Z,37.00
2017-12-05T00:43:42.867Z,35.80
2017-12-05T00:46:12.407Z,33.20
2017-12-05T00:48:41.256Z,36.80
2017-12-05T00:51:10.135Z,33.17
2017-12-05T00:53:38.981Z,37.00
2017-12-05T00:56:07.855Z,35.97
2017-12-05T00:58:36.831Z,34.67
2017-12-05T01:01:05.671Z,37.43
2017-12-05T01:03:34.510Z,35.57
2017-12-05T01:06:03.411Z,36.83
2017-12-05T01:08:32.263Z,36.20
2017-12-05T01:11:01.123Z,38.57
2017-12-05T01:13:30.017Z,36.53
2017-12-05T01:15:58.865Z,36.57
2017-12-05T01:18:28.807Z,36.07
2017-12-05T01:20:57.677Z,32.03
2017-12-05T01:23:26.529Z,35.43
2017-12-05T01:25:55.405Z,37.30
2017-12-05T01:28:24.273Z,36.07
2017-12-05T01:30:54.093Z,35.77
2017-12-05T01:33:22.941Z,36.97
2017-12-05T01:35:51.829Z,37.43
2017-12-05T01:38:20.679Z,34.93
2017-12-05T01:40:49.517Z,35.10
2017-12-05T01:43:18.403Z,35.83
2017-12-05T01:45:47.371Z,36.20
2017-12-05T01:48:16.211Z,35.57
2017-12-05T01:50:45.092Z,35.23
2017-12-05T01:53:13.956Z,34.60
2017-12-05T01:55:42.843Z,35.13
2017-12-05T01:58:11.709Z,34.70
2017-12-05T02:00:41.419Z,35.37
2017-12-05T02:03:10.894Z,37.20
2017-12-05T02:05:39.761Z,32.83
2017-12-05T02:08:09.461Z,32.60
2017-12-05T02:10:38.351Z,35.37
2017-12-05T02:13:07.267Z,34.87
2017-12-05T02:15:36.107Z,34.03
2017-12-05T02:18:04.969Z,35.60
2017-12-05T02:20:33.855Z,36.67
2017-12-05T02:23:04.769Z,35.57
2017-12-05T02:25:33.615Z,32.90
2017-12-05T02:28:02.485Z,34.57
2017-12-05T02:30:31.344Z,34.60
2017-12-05T02:33:01.007Z,31.87
2017-12-05T02:35:29.869Z,31.97
2017-12-05T02:37:58.723Z,32.47
2017-12-05T02:40:44.296Z,33.00
2017-12-05T02:43:13.136Z,32.87
2017-12-05T02:45:41.972Z,33.90
2017-12-05T02:48:10.849Z,33.70
2017-12-05T02:50:39.725Z,34.53
2017-12-05T02:53:08.573Z,32.83
2017-12-05T02:55:37.454Z,32.27
2017-12-05T02:58:06.287Z,32.57
2017-12-05T03:00:35.129Z,34.73
2017-12-05T03:03:04.001Z,34.67
2017-12-05T03:05:32.857Z,33.90
2017-12-05T03:08:02.707Z,33.10
2017-12-05T03:10:31.579Z,32.90
2017-12-05T03:13:00.437Z,32.53
2017-12-05T03:15:29.285Z,34.20
2017-12-05T03:17:58.147Z,32.80
2017-12-05T03:20:26.984Z,29.80
2017-12-05T03:22:55.943Z,33.70
2017-12-05T03:25:24.819Z,34.03
2017-12-05T03:27:53.667Z,31.50
2017-12-05T03:30:22.520Z,33.87
2017-12-05T03:32:52.299Z,31.77
2017-12-05T03:35:21.141Z,29.13
2017-12-05T03:37:49.995Z,29.97
2017-12-05T03:40:18.875Z,32.90
2017-12-05T03:42:47.756Z,32.40
2017-12-05T03:45:16.599Z,32.63
2017-12-05T03:47:45.477Z,33.03
2017-12-05T03:50:14.327Z,31.27
2017-12-05T03:52:43.167Z,32.00
2017-12-05T03:55:12.024Z,32.00
2017-12-05T03:57:40.873Z,31.10
2017-12-05T04:00:09.707Z,32.97
2017-12-05T04:02:38.622Z,31.53
2017-12-05T04:05:07.473Z,29.77
2017-12-05T04:07:36.324Z,46.93
2017-12-05T04:10:05.181Z,35.47
2017-12-05T04:12:34.062Z,32.03
2017-12-05T04:15:03.011Z,35.17
2017-12-05T04:17:31.887Z,32.27
2017-12-05T04:20:00.744Z,34.53
2017-12-05T04:22:29.623Z,30.33
2017-12-05T04:24:58.475Z,32.83
2017-12-05T04:27:27.309Z,32.13
2017-12-05T04:29:56.165Z,36.03
2017-12-05T04:32:26.119Z,34.53
2017-12-05T04:34:54.967Z,36.57
2017-12-05T04:37:23.817Z,32.47
2017-12-05T04:39:52.695Z,33.70
2017-12-05T04:42:21.539Z,36.47
2017-12-05T04:44:50.404Z,32.07
2017-12-05T04:47:19.313Z,35.57
2017-12-05T04:49:48.160Z,34.80
2017-12-05T04:52:17.032Z,33.00
2017-12-05T04:54:45.891Z,31.10
2017-12-05T04:57:14.761Z,31.40
2017-12-05T04:59:43.605Z,31.93
2017-12-05T05:02:12.487Z,37.67
2017-12-05T05:04:41.332Z,35.00
2017-12-05T05:07:10.179Z,35.70
2017-12-05T05:09:39.044Z,37.30
2017-12-05T05:12:07.896Z,35.10
2017-12-05T05:14:36.759Z,34.13
2017-12-05T05:17:05.642Z,30.43
2017-12-05T05:19:34.711Z,32.57
2017-12-05T05:22:03.979Z,32.63
2017-12-05T05:24:32.835Z,33.13
2017-12-05T05:27:01.685Z,34.60
2017-12-05T05:29:30.523Z,36.03
2017-12-05T05:31:59.383Z,34.43
2017-12-05T05:34:28.242Z,34.57
2017-12-05T05:36:57.138Z,34.70
2017-12-05T05:39:26.021Z,33.73
2017-12-05T05:41:54.865Z,36.07
2017-12-05T05:44:23.715Z,34.23
2017-12-05T05:46:52.598Z,34.53
2017-12-05T05:49:21.452Z,34.23
2017-12-05T05:51:50.349Z,37.87
2017-12-05T05:54:19.211Z,36.17
2017-12-05T05:56:48.123Z,36.40
2017-12-05T05:59:17.681Z,36.10
2017-12-05T06:01:46.551Z,35.77
2017-12-05T06:04:15.397Z,36.53
2017-12-05T06:06:44.245Z,32.90
2017-12-05T06:09:13.153Z,36.37
2017-12-05T06:11:41.999Z,36.73
2017-12-05T06:14:10.841Z,38.77
2017-12-05T06:16:39.716Z,34.37
2017-12-05T06:19:10.668Z,37.00
2017-12-05T06:21:39.526Z,36.00
2017-12-05T06:24:08.408Z,38.23
2017-12-05T06:26:37.398Z,35.57
2017-12-05T06:29:06.903Z,35.10
2017-12-05T06:31:35.914Z,35.53
2017-12-05T06:34:04.795Z,36.73
2017-12-05T06:36:33.659Z,37.73
2017-12-05T06:39:02.655Z,35.80
2017-12-05T06:41:31.519Z,37.13
2017-12-05T06:44:00.401Z,37.00
2017-12-05T06:46:29.267Z,37.67
2017-12-05T06:48:58.213Z,35.37
2017-12-05T06:51:27.529Z,37.50
2017-12-05T06:53:56.413Z,38.07
2017-12-05T06:56:25.285Z,35.57
2017-12-05T06:58:54.193Z,36.53
2017-12-05T07:01:23.055Z,36.60
2017-12-05T07:03:51.903Z,36.57
2017-12-05T07:06:20.785Z,35.67
2017-12-05T07:08:49.627Z,35.03
2017-12-05T07:11:18.465Z,35.33
2017-12-05T07:13:48.514Z,35.03
2017-12-05T07:16:17.377Z,35.87
2017-12-05T07:18:46.219Z,36.63
2017-12-05T07:21:15.109Z,35.83
2017-12-05T07:23:43.951Z,36.63
2017-12-05T07:26:12.813Z,34.60
2017-12-05T07:28:41.680Z,36.60
2017-12-05T07:31:10.527Z,35.17
2017-12-05T07:33:39.379Z,34.33
2017-12-05T07:36:08.732Z,34.40
2017-12-05T07:38:37.573Z,35.07
2017-12-05T07:41:06.445Z,35.73
2017-12-05T07:43:35.339Z,35.27
2017-12-05T07:46:04.200Z,33.87
2017-12-05T07:48:33.047Z,34.50
2017-12-05T07:51:02.357Z,34.20
2017-12-05T07:53:31.195Z,34.97
2017-12-05T07:56:00.039Z,35.03
2017-12-05T07:58:28.903Z,35.13
2017-12-05T08:00:57.771Z,35.17
2017-12-05T08:03:26.603Z,37.27
2017-12-05T08:05:55.460Z,36.40
2017-12-05T08:08:24.327Z,35.30
2017-12-05T08:10:53.804Z,37.13
2017-12-05T08:13:22.663Z,34.67
2017-12-05T08:15:51.500Z,33.77
2017-12-05T08:18:20.371Z,35.17
2017-12-05T08:20:49.226Z,32.93
2017-12-05T08:23:19.766Z,33.30
2017-12-05T08:25:48.678Z,33.93
2017-12-05T08:28:17.533Z,34.53
2017-12-05T08:30:46.388Z,35.07
2017-12-05T08:33:16.115Z,34.17
2017-12-05T08:35:45.365Z,32.57
2017-12-05T08:38:14.235Z,33.47
2017-12-05T08:40:43.079Z,33.50
2017-12-05T08:43:12.581Z,33.77
2017-12-05T08:45:41.421Z,34.37
2017-12-05T08:48:10.845Z,33.47
2017-12-05T08:50:40.543Z,34.93
2017-12-05T08:53:09.391Z,33.37
2017-12-05T08:55:38.254Z,32.47
2017-12-05T08:58:07.111Z,31.27
2017-12-05T09:00:36.097Z,32.40
2017-12-05T09:03:05.075Z,31.40
2017-12-05T09:05:34.101Z,32.90
2017-12-05T09:08:02.975Z,34.23
2017-12-05T09:10:31.829Z,34.70
2017-12-05T09:13:00.689Z,31.27
2017-12-05T09:15:30.379Z,32.77
2017-12-05T09:17:59.249Z,32.10
2017-12-05T09:20:28.121Z,32.37
2017-12-05T09:22:56.985Z,34.17
2017-12-05T09:25:25.827Z,31.60
2017-12-05T09:27:54.697Z,26.43
2017-12-05T09:30:23.532Z,31.73
2017-12-05T09:32:52.377Z,31.10
2017-12-05T09:35:21.269Z,32.00
2017-12-05T09:37:50.679Z,31.57
2017-12-05T09:40:19.526Z,31.13
2017-12-05T09:42:49.729Z,30.83
2017-12-05T09:45:18.821Z,31.27
2017-12-05T09:47:47.667Z,31.00
2017-12-05T09:50:16.519Z,31.77
2017-12-05T09:52:45.364Z,31.57
2017-12-05T09:55:14.271Z,32.43
2017-12-05T09:57:43.133Z,31.87
2017-12-05T10:00:12.532Z,30.83
2017-12-05T10:02:41.374Z,31.80
2017-12-05T10:05:10.237Z,30.93
2017-12-05T10:07:40.041Z,30.50
2017-12-05T10:10:08.891Z,29.07
2017-12-05T10:12:38.663Z,29.00
2017-12-05T10:15:08.350Z,31.47
2017-12-05T10:17:37.209Z,29.80
2017-12-05T10:20:06.124Z,30.57
2017-12-05T10:22:35.709Z,31.07
2017-12-05T10:25:04.543Z,31.13
2017-12-05T10:27:34.225Z,29.63
2017-12-05T10:30:03.136Z,29.80
2017-12-05T10:32:31.993Z,30.87
2017-12-05T10:35:00.861Z,29.73
2017-12-05T10:37:30.267Z,30.23
2017-12-05T10:39:59.137Z,31.13
2017-12-05T10:42:28.351Z,31.10
2017-12-05T10:44:57.193Z,32.60
2017-12-05T10:47:26.035Z,31.87
2017-12-05T10:49:54.899Z,31.67
2017-12-05T10:52:24.535Z,30.07
2017-12-05T10:54:53.404Z,29.03
2017-12-05T10:57:22.261Z,29.23
2017-12-05T10:59:51.109Z,29.50
2017-12-05T11:02:19.949Z,31.80
2017-12-05T11:04:48.851Z,27.50
2017-12-05T11:07:17.719Z,31.30
2017-12-05T11:09:46.569Z,29.30
2017-12-05T11:12:15.425Z,29.17
2017-12-05T11:14:44.429Z,28.87
2017-12-05T11:17:13.287Z,28.30
2017-12-05T11:19:42.391Z,27.50
2017-12-05T11:22:11.244Z,29.70
2017-12-05T11:24:40.095Z,26.70
2017-12-05T11:27:08.961Z,28.10
2017-12-05T11:29:37.813Z,28.63
2017-12-05T11:32:06.651Z,37.23
2017-12-05T11:34:35.507Z,27.30
2017-12-05T11:37:04.451Z,26.13
2017-12-05T11:39:33.303Z,29.83
2017-12-05T11:42:02.173Z,25.77
2017-12-05T11:44:31.050Z,26.17
2017-12-05T11:47:00.762Z,25.97
2017-12-05T11:49:29.622Z,25.63
2017-12-05T11:51:58.481Z,25.67
2017-12-05T11:54:27.343Z,26.30
2017-12-05T11:56:56.213Z,27.73
2017-12-05T11:59:25.082Z,24.47
2017-12-05T12:01:53.919Z,25.73
2017-12-05T12:04:22.769Z,24.53
2017-12-05T12:06:51.621Z,31.53
2017-12-05T12:09:20.488Z,24.90
2017-12-05T12:11:49.375Z,27.50
2017-12-05T12:14:18.221Z,26.40
2017-12-05T12:16:47.073Z,24.23
2017-12-05T12:19:16.575Z,21.13
2017-12-05T12:21:45.409Z,23.20
2017-12-05T12:24:14.243Z,22.93
2017-12-05T12:26:43.127Z,22.00
2017-12-05T12:29:11.972Z,22.87
2017-12-05T12:31:40.844Z,21.73
2017-12-05T12:34:10.679Z,21.40
2017-12-05T12:36:39.527Z,20.73
2017-12-05T12:39:08.372Z,21.73
2017-12-05T12:41:37.243Z,20.67
2017-12-05T12:44:06.103Z,20.63
2017-12-05T12:46:34.957Z,20.23
2017-12-05T12:49:03.878Z,20.50
2017-12-05T12:51:32.754Z,21.20
2017-12-05T12:54:01.601Z,21.40
2017-12-05T12:56:30.527Z,21.43
2017-12-05T12:58:59.397Z,20.93
2017-12-05T13:01:28.241Z,20.47
2017-12-05T13:03:57.842Z,21.97
2017-12-05T13:06:26.891Z,21.70
2017-12-05T13:08:55.740Z,20.87
2017-12-05T13:11:24.587Z,21.77
2017-12-05T13:13:53.487Z,21.60
2017-12-05T13:16:22.325Z,21.43
2017-12-05T13:18:51.191Z,22.27
2017-12-05T13:21:20.051Z,20.97
2017-12-05T13:23:48.906Z,21.97
2017-12-05T13:26:18.278Z,21.73
2017-12-05T13:28:47.133Z,20.87
2017-12-05T13:31:16.715Z,21.00
2017-12-05T13:33:45.597Z,20.50
2017-12-05T13:36:14.484Z,18.40
2017-12-05T13:38:43.325Z,19.43
2017-12-05T13:41:13.039Z,19.33
2017-12-05T13:43:42.569Z,19.40
2017-12-05T13:46:11.487Z,18.77
2017-12-05T13:48:40.339Z,19.43
2017-12-05T13:51:09.173Z,19.63
2017-12-05T13:53:38.611Z,18.13
2017-12-05T13:56:07.537Z,19.53
2017-12-05T13:58:36.421Z,20.07
2017-12-05T14:01:05.259Z,18.93
2017-12-05T14:03:34.129Z,20.37
2017-12-05T14:06:02.991Z,18.47
2017-12-05T14:08:31.842Z,17.67
2017-12-05T14:11:00.859Z,18.13
2017-12-05T14:13:29.693Z,17.23
2017-12-05T14:15:58.565Z,18.47
2017-12-05T14:18:27.449Z,17.43
2017-12-05T14:20:56.308Z,17.53
2017-12-05T14:23:25.191Z,18.50
2017-12-05T14:25:54.051Z,17.87
2017-12-05T14:28:23.151Z,17.60
2017-12-05T14:30:52.019Z,17.63
2017-12-05T14:33:21.520Z,17.50
2017-12-05T14:35:50.411Z,17.47
2017-12-05T14:38:19.258Z,17.53
2017-12-05T14:40:48.144Z,17.63
2017-12-05T14:43:16.986Z,17.73
2017-12-05T14:45:45.862Z,16.87
2017-12-05T14:48:14.709Z,17.33
2017-12-05T14:50:43.570Z,65.90
2017-12-05T14:53:12.450Z,20.43
2017-12-05T14:55:41.319Z,17.57
2017-12-05T14:58:10.173Z,19.33
2017-12-05T15:00:39.026Z,17.17
2017-12-05T15:03:07.971Z,16.73
2017-12-05T15:05:36.818Z,16.13
2017-12-05T15:08:05.675Z,16.53
2017-12-05T15:10:34.567Z,16.67
2017-12-05T15:13:03.428Z,16.93
2017-12-05T15:15:32.699Z,16.40
2017-12-05T15:18:01.601Z,15.70
2017-12-05T15:20:30.479Z,15.53
2017-12-05T15:22:59.319Z,15.70
2017-12-05T15:25:29.058Z,15.17
2017-12-05T15:27:57.905Z,14.83
2017-12-05T15:30:26.755Z,15.43
2017-12-05T15:32:55.641Z,15.20
2017-12-05T15:35:24.499Z,14.97
2017-12-05T15:37:53.352Z,14.50
2017-12-05T15:40:22.269Z,14.97
2017-12-05T15:42:51.137Z,13.60
2017-12-05T15:45:25.026Z,14.43
2017-12-05T15:47:53.905Z,14.30
2017-12-05T15:50:23.263Z,14.53
2017-12-05T15:52:52.129Z,13.83
2017-12-05T15:55:21.009Z,14.80
2017-12-05T15:57:50.837Z,14.73
2017-12-05T16:00:19.713Z,14.00
2017-12-05T16:02:48.595Z,15.27
2017-12-05T16:05:17.447Z,20.53
2017-12-05T16:07:46.303Z,14.53
2017-12-05T16:10:15.169Z,83.93
2017-12-05T16:12:44.024Z,29.60
2017-12-05T16:15:12.859Z,14.07
2017-12-05T16:17:41.725Z,16.00
2017-12-05T16:20:10.589Z,14.27
2017-12-05T16:22:40.908Z,13.00
2017-12-05T16:25:09.779Z,12.97
2017-12-05T16:27:38.617Z,13.03
2017-12-05T16:30:07.473Z,13.00
2017-12-05T16:32:36.339Z,15.27
2017-12-05T16:35:05.249Z,13.53
2017-12-05T16:37:34.285Z,13.30
2017-12-05T16:40:03.230Z,13.40
2017-12-05T16:42:32.094Z,12.90
2017-12-05T16:45:00.931Z,13.90
2017-12-05T16:47:30.759Z,13.50
2017-12-05T16:49:59.593Z,15.57
2017-12-05T16:52:28.455Z,13.27
2017-12-05T16:54:57.322Z,12.10
2017-12-05T16:57:26.261Z,12.60
2017-12-05T16:59:55.811Z,12.67
2017-12-05T17:02:24.759Z,12.33
2017-12-05T17:04:54.507Z,11.77
2017-12-05T17:07:23.359Z,11.60
2017-12-05T17:09:52.217Z,11.97
2017-12-05T17:12:21.123Z,12.27
2017-12-05T17:14:49.962Z,11.70
2017-12-05T17:17:18.861Z,10.77
2017-12-05T17:19:47.712Z,12.17
2017-12-05T17:22:16.593Z,11.50
2017-12-05T17:24:45.473Z,11.23
2017-12-05T17:27:14.331Z,12.10
2017-12-05T17:29:43.188Z,11.37
2017-12-05T17:32:12.051Z,17.23
2017-12-05T17:34:40.899Z,12.43
2017-12-05T17:37:09.765Z,13.30
2017-12-05T17:39:38.684Z,13.33
2017-12-05T17:42:07.504Z,12.47
2017-12-05T17:44:36.435Z,12.60
2017-12-05T17:47:05.309Z,11.50
2017-12-05T17:49:34.171Z,11.00
2017-12-05T17:52:03.041Z,11.87
2017-12-05T17:54:31.909Z,11.17
2017-12-05T17:57:00.755Z,11.00
2017-12-05T17:59:29.629Z,11.40
2017-12-05T18:01:59.235Z,11.90
2017-12-05T18:04:28.091Z,11.60
2017-12-05T18:06:57.545Z,12.47
2017-12-05T18:09:26.451Z,11.33
2017-12-05T18:11:55.286Z,12.00
2017-12-05T18:14:24.135Z,12.07
2017-12-05T18:16:53.001Z,12.83
2017-12-05T18:19:21.869Z,12.30
2017-12-05T18:21:50.719Z,13.40
2017-12-05T18:24:19.635Z,12.53
2017-12-05T18:26:48.495Z,11.80
2017-12-05T18:29:17.384Z,11.17
2017-12-05T18:31:46.244Z,11.93
2017-12-05T18:34:15.710Z,11.63
2017-12-05T18:36:44.641Z,11.70
2017-12-05T18:39:13.637Z,11.50
2017-12-05T18:41:42.475Z,11.60
2017-12-05T18:44:11.331Z,11.87
2017-12-05T18:46:40.199Z,13.10
2017-12-05T18:49:09.045Z,12.20
2017-12-05T18:51:37.905Z,11.30
2017-12-05T18:54:06.793Z,13.17
2017-12-05T18:56:35.653Z,14.40
2017-12-05T18:59:04.520Z,12.67
2017-12-05T19:01:33.432Z,15.30
2017-12-05T19:04:02.285Z,10.33
2017-12-05T19:06:31.171Z,15.20
2017-12-05T19:09:00.044Z,11.50
2017-12-05T19:11:28.895Z,12.47
2017-12-05T19:13:57.729Z,13.40
2017-12-05T19:16:26.650Z,13.83
2017-12-05T19:18:55.504Z,11.50
2017-12-05T19:21:24.362Z,11.57
2017-12-05T19:23:53.253Z,13.70
2017-12-05T19:26:22.107Z,11.60
2017-12-05T19:28:51.685Z,12.30
2017-12-05T19:31:20.561Z,13.30
2017-12-05T19:33:49.691Z,12.93
2017-12-05T19:36:18.553Z,13.20
2017-12-05T19:38:47.442Z,12.93
2017-12-05T19:41:16.787Z,12.87
2017-12-05T19:43:46.667Z,12.67
2017-12-05T19:46:15.655Z,13.10
2017-12-05T19:48:44.508Z,14.00
2017-12-05T19:51:13.344Z,13.67
2017-12-05T19:53:42.230Z,13.60
2017-12-05T19:56:11.351Z,16.43
2017-12-05T19:58:40.241Z,14.67
2017-12-05T20:01:09.168Z,14.77
2017-12-05T20:03:38.017Z,15.53
2017-12-05T20:06:06.899Z,14.13
2017-12-05T20:08:35.839Z,13.70
2017-12-05T20:11:04.740Z,14.63
2017-12-05T20:13:33.591Z,13.90
2017-12-05T20:16:02.500Z,14.50
2017-12-05T20:18:31.351Z,14.47
2017-12-05T20:21:00.211Z,14.97
2017-12-05T20:23:29.155Z,13.20
2017-12-05T20:25:58.917Z,14.57
2017-12-05T20:28:27.991Z,14.70
2017-12-05T20:30:56.853Z,14.70
2017-12-05T20:33:25.685Z,15.00
2017-12-05T20:35:54.585Z,13.27
2017-12-05T20:38:23.492Z,13.97
2017-12-05T20:40:52.351Z,14.03
2017-12-05T20:43:21.213Z,14.97
2017-12-05T20:45:50.124Z,14.10
2017-12-05T20:48:18.992Z,14.90
2017-12-05T20:50:47.847Z,15.23
2017-12-05T20:53:16.723Z,16.30
2017-12-05T20:55:45.564Z,15.33
2017-12-05T20:58:14.505Z,16.60
2017-12-05T21:00:43.591Z,15.77
2017-12-05T21:03:12.950Z,15.63
2017-12-05T21:05:41.851Z,16.83
2017-12-05T21:08:10.747Z,14.73
2017-12-05T21:10:40.655Z,19.53
2017-12-05T21:13:09.507Z,23.03
2017-12-05T21:15:38.419Z,15.53
2017-12-05T21:18:07.303Z,15.73
2017-12-05T21:20:36.157Z,18.00
2017-12-05T21:23:05.071Z,18.17
2017-12-05T21:25:34.021Z,15.27
2017-12-05T21:28:03.274Z,14.53
2017-12-05T21:30:32.331Z,14.87
2017-12-05T21:33:02.206Z,15.10
2017-12-05T21:35:31.041Z,14.53
2017-12-05T21:37:59.929Z,18.33
2017-12-05T21:40:28.789Z,14.70
2017-12-05T21:42:57.671Z,14.80
2017-12-05T21:45:26.562Z,15.83
2017-12-05T21:47:55.412Z,15.00
2017-12-05T21:50:24.576Z,14.07
2017-12-05T21:52:53.467Z,15.20
2017-12-05T21:55:22.303Z,15.70
2017-12-05T21:57:51.399Z,14.67
2017-12-05T22:00:20.858Z,14.80
2017-12-05T22:02:52.079Z,14.33
2017-12-05T22:05:21.009Z,14.03
2017-12-05T22:07:50.174Z,14.20
2017-12-05T22:10:20.051Z,14.13
2017-12-05T22:12:48.937Z,14.07
2017-12-05T22:15:18.435Z,15.23
2017-12-05T22:17:48.287Z,13.93
2017-12-05T22:20:17.181Z,14.87
2017-12-05T22:22:46.029Z,14.77
2017-12-05T22:25:15.077Z,14.33
2017-12-05T22:27:44.171Z,14.77
2017-12-05T22:30:13.067Z,15.20
2017-12-05T22:32:41.919Z,14.57
2017-12-05T22:35:10.817Z,17.43
2017-12-05T22:37:39.714Z,20.17
2017-12-05T22:40:08.553Z,17.43
2017-12-05T22:42:37.413Z,18.43
2017-12-05T22:45:06.270Z,18.60
2017-12-05T22:47:35.155Z,18.07
2017-12-05T22:50:04.042Z,17.07
2017-12-05T22:52:32.889Z,16.00
2017-12-05T22:55:01.739Z,15.37
2017-12-05T22:57:30.599Z,15.43
2017-12-05T22:59:59.697Z,15.50
2017-12-05T23:02:28.539Z,15.70
2017-12-05T23:04:57.473Z,14.67
2017-12-05T23:07:26.310Z,15.23
2017-12-05T23:09:55.201Z,15.30
2017-12-05T23:12:24.101Z,14.70
2017-12-05T23:14:52.952Z,15.57
2017-12-05T23:17:21.831Z,15.40
2017-12-05T23:19:50.748Z,14.77
2017-12-05T23:22:19.589Z,14.83
2017-12-05T23:24:49.349Z,14.97
2017-12-05T23:27:18.219Z,15.03
2017-12-05T23:29:47.065Z,14.80
2017-12-05T23:32:15.907Z,15.07
2017-12-05T23:34:44.779Z,14.50
2017-12-05T23:37:13.635Z,14.83
2017-12-05T23:39:42.511Z,14.70
2017-12-05T23:42:11.372Z,14.13
2017-12-05T23:44:40.219Z,14.00
2017-12-05T23:47:09.073Z,15.30
2017-12-05T23:49:37.936Z,15.20
2017-12-05T23:52:06.916Z,15.23
2017-12-05T23:54:35.773Z,15.03
2017-12-05T23:57:04.651Z,16.17
2017-12-05T23:59:33.511Z,14.53
